createdAt,value
2018-04-25T00:00:46.359Z,10.93
2018-04-25T00:03:13.755Z,7.63
2018-04-25T00:05:41.167Z,8.60
2018-04-25T00:08:08.578Z,9.03
2018-04-25T00:10:36.777Z,9.30
2018-04-25T00:13:04.179Z,10.63
2018-04-25T00:15:31.582Z,8.43
2018-04-25T00:17:58.983Z,8.63
2018-04-25T00:20:26.418Z,10.30
2018-04-25T00:22:53.872Z,12.43
2018-04-25T00:25:21.278Z,10.03
2018-04-25T00:27:49.461Z,8.27
2018-04-25T00:30:16.862Z,9.17
2018-04-25T00:32:44.276Z,11.07
2018-04-25T00:35:11.703Z,7.90
2018-04-25T00:37:39.094Z,9.63
2018-04-25T00:40:07.251Z,7.80
2018-04-25T00:42:35.427Z,7.57
2018-04-25T00:45:02.840Z,8.90
2018-04-25T00:47:30.326Z,8.67
2018-04-25T00:49:57.757Z,8.27
2018-04-25T00:52:25.172Z,6.83
2018-04-25T00:54:52.576Z,8.97
2018-04-25T00:57:19.978Z,8.27
2018-04-25T00:59:47.442Z,7.77
2018-04-25T01:02:14.842Z,8.00
2018-04-25T01:04:43.008Z,9.47
2018-04-25T01:07:10.437Z,7.97
2018-04-25T01:09:37.850Z,8.33
2018-04-25T01:12:05.258Z,7.03
2018-04-25T01:14:32.671Z,7.57
2018-04-25T01:17:00.090Z,8.70
2018-04-25T01:19:27.483Z,7.17
2018-04-25T01:21:54.899Z,6.90
2018-04-25T01:24:22.335Z,10.33
2018-04-25T01:26:51.287Z,6.90
2018-04-25T01:29:19.464Z,7.43
2018-04-25T01:31:48.547Z,8.70
2018-04-25T01:34:17.653Z,9.50
2018-04-25T01:36:46.358Z,10.47
2018-04-25T01:42:17.714Z,9.10
2018-04-25T01:44:52.542Z,6.63
2018-04-25T01:47:39.163Z,6.77
2018-04-25T01:53:17.785Z,6.73
2018-04-25T01:55:57.187Z,6.33
2018-04-25T01:58:36.754Z,6.20
2018-04-25T02:01:16.002Z,6.80
2018-04-25T02:03:59.883Z,7.33
2018-04-25T02:06:27.283Z,8.97
2018-04-25T02:08:54.694Z,6.67
2018-04-25T02:11:22.111Z,5.77
2018-04-25T02:13:49.534Z,6.23
2018-04-25T02:16:16.946Z,7.83
2018-04-25T02:18:44.351Z,9.33
2018-04-25T02:21:11.763Z,7.13
2018-04-25T02:23:39.163Z,5.53
2018-04-25T02:26:06.567Z,8.50
2018-04-25T02:28:33.971Z,9.07
2018-04-25T02:31:01.387Z,6.00
2018-04-25T02:33:28.885Z,5.23
2018-04-25T02:35:56.278Z,5.37
2018-04-25T02:38:23.767Z,5.53
2018-04-25T02:40:51.155Z,6.33
2018-04-25T02:43:18.638Z,6.47
2018-04-25T02:45:46.043Z,7.33
2018-04-25T02:48:13.440Z,4.43
2018-04-25T02:50:40.838Z,7.20
2018-04-25T02:53:08.286Z,6.37
2018-04-25T02:55:35.695Z,7.47
2018-04-25T02:58:03.862Z,5.23
2018-04-25T03:00:32.022Z,5.53
2018-04-25T03:02:59.438Z,6.07
2018-04-25T03:05:26.861Z,5.60
2018-04-25T03:07:54.250Z,6.03
2018-04-25T03:10:21.656Z,6.10
2018-04-25T03:12:49.059Z,9.30
2018-04-25T03:15:16.475Z,6.73
2018-04-25T03:17:43.874Z,7.77
2018-04-25T03:20:11.279Z,8.73
2018-04-25T03:22:38.779Z,6.03
2018-04-25T03:25:06.108Z,5.50
2018-04-25T03:27:33.599Z,6.40
2018-04-25T03:30:01.007Z,5.73
2018-04-25T03:32:29.170Z,6.93
2018-04-25T03:34:56.598Z,5.90
2018-04-25T03:37:24.764Z,8.87
2018-04-25T03:39:52.940Z,9.70
2018-04-25T03:42:20.398Z,10.03
2018-04-25T03:44:47.793Z,5.40
2018-04-25T03:47:15.967Z,5.60
2018-04-25T03:49:44.139Z,7.10
2018-04-25T03:52:11.590Z,9.53
2018-04-25T03:54:38.995Z,8.23
2018-04-25T03:57:07.166Z,8.00
2018-04-25T03:59:35.341Z,11.63
2018-04-25T04:02:02.743Z,7.43
2018-04-25T04:04:35.165Z,11.70
2018-04-25T04:07:02.567Z,6.57
2018-04-25T04:09:29.982Z,6.87
2018-04-25T04:11:57.392Z,6.23
2018-04-25T04:14:24.803Z,6.70
2018-04-25T04:16:52.202Z,6.43
2018-04-25T04:19:19.603Z,5.90
2018-04-25T04:21:47.015Z,9.57
2018-04-25T04:24:15.183Z,7.97
2018-04-25T04:26:42.590Z,7.60
2018-04-25T04:29:10.752Z,8.80
2018-04-25T04:31:38.930Z,8.13
2018-04-25T04:34:06.334Z,7.43
2018-04-25T04:36:33.747Z,6.07
2018-04-25T04:39:01.146Z,7.30
2018-04-25T04:41:29.339Z,10.67
2018-04-25T04:43:56.738Z,7.97
2018-04-25T04:46:24.923Z,8.37
2018-04-25T04:48:52.335Z,8.40
2018-04-25T04:51:19.735Z,6.37
2018-04-25T04:53:47.139Z,9.70
2018-04-25T04:56:14.620Z,9.53
2018-04-25T04:58:41.942Z,10.40
2018-04-25T05:01:09.355Z,8.03
2018-04-25T05:03:37.539Z,7.73
2018-04-25T05:06:04.950Z,13.03
2018-04-25T05:08:33.151Z,11.80
2018-04-25T05:11:00.529Z,6.50
2018-04-25T05:13:27.926Z,9.93
2018-04-25T05:15:55.335Z,7.63
2018-04-25T05:18:23.566Z,10.30
2018-04-25T05:20:50.920Z,7.37
2018-04-25T05:23:18.311Z,6.67
2018-04-25T05:25:45.715Z,8.80
2018-04-25T05:28:13.900Z,9.27
2018-04-25T05:30:41.290Z,6.33
2018-04-25T05:33:08.700Z,9.87
2018-04-25T05:35:36.109Z,9.80
2018-04-25T05:38:03.508Z,10.77
2018-04-25T05:40:31.016Z,9.57
2018-04-25T05:42:58.471Z,9.27
2018-04-25T05:45:25.874Z,12.43
2018-04-25T05:47:53.291Z,8.57
2018-04-25T05:50:20.683Z,7.97
2018-04-25T05:52:48.095Z,11.17
2018-04-25T05:55:15.502Z,7.80
2018-04-25T05:57:42.995Z,8.03
2018-04-25T06:00:10.400Z,7.27
2018-04-25T06:02:38.571Z,9.07
2018-04-25T06:05:05.975Z,9.63
2018-04-25T06:07:33.378Z,7.60
2018-04-25T06:10:00.821Z,7.23
2018-04-25T06:12:28.272Z,9.47
2018-04-25T06:14:55.672Z,7.13
2018-04-25T06:17:23.849Z,7.37
2018-04-25T06:19:51.244Z,4.90
2018-04-25T06:22:18.651Z,9.17
2018-04-25T06:24:46.066Z,7.83
2018-04-25T06:27:13.482Z,7.17
2018-04-25T06:29:40.882Z,7.43
2018-04-25T06:32:08.279Z,10.10
2018-04-25T06:34:35.675Z,6.17
2018-04-25T06:37:03.083Z,6.97
2018-04-25T06:39:30.573Z,7.63
2018-04-25T06:41:57.934Z,5.20
2018-04-25T06:44:26.118Z,10.73
2018-04-25T06:46:53.517Z,7.73
2018-04-25T06:49:21.017Z,4.87
2018-04-25T06:51:48.417Z,9.50
2018-04-25T06:54:16.700Z,6.73
2018-04-25T06:56:44.199Z,6.33
2018-04-25T06:59:11.522Z,8.03
2018-04-25T07:01:38.931Z,8.50
2018-04-25T07:04:06.526Z,7.47
2018-04-25T07:06:33.931Z,8.83
2018-04-25T07:09:01.347Z,7.27
2018-04-25T07:11:28.748Z,11.40
2018-04-25T07:13:56.159Z,9.77
2018-04-25T07:16:23.599Z,6.13
2018-04-25T07:18:51.010Z,8.30
2018-04-25T07:21:18.407Z,9.00
2018-04-25T07:23:45.812Z,8.83
2018-04-25T07:26:13.264Z,11.60
2018-04-25T07:28:40.674Z,6.77
2018-04-25T07:31:08.182Z,11.10
2018-04-25T07:33:35.600Z,21.67
2018-04-25T07:36:03.010Z,6.43
2018-04-25T07:38:30.418Z,10.83
2018-04-25T07:40:58.609Z,18.13
2018-04-25T07:43:26.019Z,8.10
2018-04-25T07:45:54.185Z,7.90
2018-04-25T07:48:22.363Z,12.60
2018-04-25T07:50:49.778Z,9.90
2018-04-25T07:53:17.951Z,9.43
2018-04-25T07:55:45.354Z,10.70
2018-04-25T07:58:12.758Z,11.37
2018-04-25T08:00:40.170Z,9.20
2018-04-25T08:03:08.347Z,6.77
2018-04-25T08:05:35.746Z,9.80
2018-04-25T08:08:03.158Z,10.53
2018-04-25T08:10:30.564Z,7.17
2018-04-25T08:13:09.834Z,7.00
2018-04-25T08:15:48.974Z,11.43
2018-04-25T08:18:28.299Z,8.57
2018-04-25T08:24:02.066Z,15.93
2018-04-25T08:26:29.471Z,15.30
2018-04-25T08:28:56.961Z,7.80
2018-04-25T08:31:24.458Z,9.90
2018-04-25T08:33:51.871Z,14.37
2018-04-25T08:36:20.059Z,9.60
2018-04-25T08:38:47.463Z,8.43
2018-04-25T08:41:15.626Z,7.57
2018-04-25T08:43:43.819Z,9.27
2018-04-25T08:46:11.215Z,8.77
2018-04-25T08:48:38.703Z,9.03
2018-04-25T08:51:06.107Z,12.43
2018-04-25T08:53:34.303Z,12.37
2018-04-25T08:56:01.711Z,10.00
2018-04-25T08:58:29.899Z,17.73
2018-04-25T09:00:57.351Z,10.77
2018-04-25T09:03:24.754Z,11.87
2018-04-25T09:05:52.985Z,7.53
2018-04-25T09:08:20.331Z,11.23
2018-04-25T09:10:47.831Z,9.77
2018-04-25T09:13:15.287Z,9.90
2018-04-25T09:15:43.413Z,8.20
2018-04-25T09:18:11.584Z,7.53
2018-04-25T09:20:38.970Z,8.37
2018-04-25T09:23:06.462Z,7.63
2018-04-25T09:25:33.877Z,7.70
2018-04-25T09:28:01.319Z,9.17
2018-04-25T09:30:28.745Z,10.37
2018-04-25T09:32:56.150Z,9.60
2018-04-25T09:35:23.558Z,7.73
2018-04-25T09:37:50.962Z,6.83
2018-04-25T09:40:18.367Z,8.33
2018-04-25T09:42:45.870Z,7.13
2018-04-25T09:45:13.291Z,6.30
2018-04-25T09:47:40.687Z,7.70
2018-04-25T09:50:08.099Z,10.17
2018-04-25T09:52:35.647Z,7.53
2018-04-25T09:55:03.080Z,16.93
2018-04-25T09:57:30.461Z,7.90
2018-04-25T09:59:57.875Z,5.43
2018-04-25T10:02:30.898Z,8.33
2018-04-25T10:04:59.071Z,11.13
2018-04-25T10:07:26.502Z,10.73
2018-04-25T10:09:54.654Z,7.23
2018-04-25T10:12:22.822Z,8.03
2018-04-25T10:14:50.227Z,6.60
2018-04-25T10:17:17.814Z,8.27
2018-04-25T10:19:45.138Z,7.30
2018-04-25T10:22:13.321Z,8.03
2018-04-25T10:24:40.719Z,8.77
2018-04-25T10:27:08.120Z,7.40
2018-04-25T10:29:35.527Z,6.50
2018-04-25T10:32:02.966Z,8.93
2018-04-25T10:34:30.415Z,7.97
2018-04-25T10:36:57.791Z,8.87
2018-04-25T10:39:25.309Z,9.10
2018-04-25T10:41:52.687Z,9.40
2018-04-25T10:44:20.949Z,11.93
2018-04-25T10:46:49.044Z,9.53
2018-04-25T10:49:16.478Z,8.17
2018-04-25T10:51:43.884Z,8.27
2018-04-25T10:54:11.283Z,9.90
2018-04-25T10:56:38.690Z,9.90
2018-04-25T10:59:06.100Z,9.53
2018-04-25T11:01:33.515Z,8.97
2018-04-25T11:04:00.940Z,8.63
2018-04-25T11:06:28.330Z,12.10
2018-04-25T11:08:56.515Z,8.93
2018-04-25T11:11:23.931Z,9.77
2018-04-25T11:13:52.095Z,5.87
2018-04-25T11:16:20.266Z,8.87
2018-04-25T11:18:47.683Z,7.70
2018-04-25T11:21:15.095Z,8.73
2018-04-25T11:23:42.494Z,6.53
2018-04-25T11:26:09.918Z,7.20
2018-04-25T11:28:37.316Z,8.60
2018-04-25T11:31:04.711Z,8.63
2018-04-25T11:33:32.875Z,8.60
2018-04-25T11:36:01.169Z,7.93
2018-04-25T11:38:28.562Z,7.97
2018-04-25T11:40:56.731Z,5.50
2018-04-25T11:43:24.898Z,7.13
2018-04-25T11:45:53.072Z,4.67
2018-04-25T11:48:20.472Z,6.90
2018-04-25T11:50:47.882Z,7.13
2018-04-25T11:53:15.298Z,4.97
2018-04-25T11:55:42.715Z,6.23
2018-04-25T11:58:10.898Z,7.63
2018-04-25T12:00:38.360Z,9.27
2018-04-25T12:03:05.766Z,11.10
2018-04-25T12:05:33.170Z,7.77
2018-04-25T12:08:00.582Z,7.37
2018-04-25T12:10:27.995Z,8.83
2018-04-25T12:12:55.402Z,9.80
2018-04-25T12:15:22.906Z,7.57
2018-04-25T12:17:50.322Z,8.20
2018-04-25T12:20:17.780Z,6.30
2018-04-25T12:22:45.181Z,7.70
2018-04-25T12:25:13.384Z,8.67
2018-04-25T12:27:40.794Z,6.87
2018-04-25T12:30:08.278Z,7.37
2018-04-25T12:32:35.747Z,10.13
2018-04-25T12:35:03.138Z,6.47
2018-04-25T12:37:31.311Z,8.77
2018-04-25T12:39:58.714Z,3.83
2018-04-25T12:42:26.111Z,5.53
2018-04-25T12:44:53.547Z,5.27
2018-04-25T12:47:21.025Z,6.57
2018-04-25T12:49:49.130Z,5.50
2018-04-25T12:52:16.590Z,5.83
2018-04-25T12:54:44.003Z,7.57
2018-04-25T12:57:12.175Z,8.00
2018-04-25T12:59:39.631Z,7.27
2018-04-25T13:02:07.031Z,8.80
2018-04-25T13:04:35.235Z,5.10
2018-04-25T13:07:02.636Z,9.03
2018-04-25T13:09:30.063Z,5.67
2018-04-25T13:11:57.567Z,8.57
2018-04-25T13:14:25.003Z,8.00
2018-04-25T13:16:52.458Z,10.43
2018-04-25T13:19:19.860Z,8.20
2018-04-25T13:21:47.331Z,8.37
2018-04-25T13:24:14.732Z,5.70
2018-04-25T13:26:42.990Z,9.67
2018-04-25T13:29:10.397Z,4.90
2018-04-25T13:31:37.802Z,5.00
2018-04-25T13:34:06.004Z,7.57
2018-04-25T13:36:33.404Z,9.77
2018-04-25T13:39:01.626Z,4.77
2018-04-25T13:41:29.023Z,7.97
2018-04-25T13:43:56.483Z,7.87
2018-04-25T13:46:23.886Z,9.37
2018-04-25T13:48:51.283Z,7.77
2018-04-25T13:51:18.686Z,4.17
2018-04-25T13:53:46.086Z,3.87
2018-04-25T13:56:13.490Z,9.40
2018-04-25T13:58:40.890Z,6.30
2018-04-25T14:01:09.467Z,5.90
2018-04-25T14:03:37.630Z,7.50
2018-04-25T14:06:06.863Z,7.93
2018-04-25T14:08:34.255Z,5.70
2018-04-25T14:11:02.465Z,4.90
2018-04-25T14:13:29.856Z,6.40
2018-04-25T14:15:58.027Z,4.57
2018-04-25T14:18:25.426Z,6.60
2018-04-25T14:20:53.603Z,7.07
2018-04-25T14:23:21.767Z,5.33
2018-04-25T14:25:49.955Z,6.80
2018-04-25T14:28:17.368Z,4.80
2018-04-25T14:30:44.861Z,5.40
2018-04-25T14:33:12.264Z,9.23
2018-04-25T14:35:40.450Z,4.87
2018-04-25T14:38:07.860Z,4.03
2018-04-25T14:40:36.084Z,6.40
2018-04-25T14:43:03.498Z,4.27
2018-04-25T14:45:30.914Z,5.33
2018-04-25T14:47:59.098Z,6.13
2018-04-25T14:50:26.491Z,5.03
2018-04-25T14:52:53.898Z,3.70
2018-04-25T14:55:21.302Z,2.13
2018-04-25T14:57:48.707Z,5.13
2018-04-25T15:00:16.207Z,3.30
2018-04-25T15:02:43.704Z,7.17
2018-04-25T15:05:11.059Z,4.60
2018-04-25T15:07:39.270Z,4.53
2018-04-25T15:10:06.683Z,6.57
2018-04-25T15:12:34.091Z,4.73
2018-04-25T15:15:02.271Z,4.77
2018-04-25T15:17:29.687Z,4.00
2018-04-25T15:19:57.203Z,5.27
2018-04-25T15:22:24.584Z,3.07
2018-04-25T15:24:52.756Z,1.80
2018-04-25T15:27:20.159Z,2.13
2018-04-25T15:29:47.568Z,1.87
2018-04-25T15:32:15.052Z,3.53
2018-04-25T15:34:42.387Z,7.17
2018-04-25T15:37:09.791Z,6.40
2018-04-25T15:39:37.201Z,2.43
2018-04-25T15:42:05.402Z,3.67
2018-04-25T15:44:32.802Z,2.50
2018-04-25T15:47:00.987Z,4.03
2018-04-25T15:49:28.560Z,5.00
2018-04-25T15:51:55.963Z,3.03
2018-04-25T15:54:24.251Z,5.43
2018-04-25T15:56:51.646Z,5.57
2018-04-25T15:59:19.842Z,3.40
2018-04-25T16:01:47.251Z,2.90
2018-04-25T16:04:15.434Z,4.40
2018-04-25T16:06:42.826Z,4.67
2018-04-25T16:09:10.348Z,3.67
2018-04-25T16:11:37.762Z,3.90
2018-04-25T16:14:05.178Z,2.07
2018-04-25T16:16:32.623Z,4.40
2018-04-25T16:19:00.803Z,3.57
2018-04-25T16:21:28.258Z,2.30
2018-04-25T16:23:55.666Z,2.53
2018-04-25T16:26:23.853Z,3.60
2018-04-25T16:28:51.251Z,4.33
2018-04-25T16:31:19.501Z,5.40
2018-04-25T16:33:46.846Z,3.90
2018-04-25T16:36:15.044Z,5.77
2018-04-25T16:38:42.454Z,2.87
2018-04-25T16:41:10.623Z,5.33
2018-04-25T16:43:38.044Z,4.87
2018-04-25T16:46:05.437Z,2.80
2018-04-25T16:48:32.848Z,5.33
2018-04-25T16:51:00.255Z,4.17
2018-04-25T16:53:27.655Z,3.90
2018-04-25T16:55:55.058Z,6.50
2018-04-25T16:58:23.231Z,2.87
2018-04-25T17:00:50.694Z,6.00
2018-04-25T17:03:18.091Z,2.23
2018-04-25T17:05:46.264Z,3.40
2018-04-25T17:08:14.430Z,2.77
2018-04-25T17:10:41.839Z,2.63
2018-04-25T17:13:09.231Z,2.80
2018-04-25T17:15:36.638Z,1.70
2018-04-25T17:18:04.831Z,2.63
2018-04-25T17:20:32.262Z,2.37
2018-04-25T17:22:59.684Z,2.27
2018-04-25T17:25:27.075Z,2.20
2018-04-25T17:27:54.475Z,2.47
2018-04-25T17:30:22.643Z,3.57
2018-04-25T17:32:50.042Z,3.73
2018-04-25T17:35:17.443Z,4.57
2018-04-25T17:37:44.862Z,1.50
2018-04-25T17:40:12.262Z,5.03
2018-04-25T17:42:39.683Z,3.67
2018-04-25T17:45:07.095Z,1.77
2018-04-25T17:47:34.501Z,2.70
2018-04-25T17:50:01.912Z,2.07
2018-04-25T17:52:29.311Z,2.37
2018-04-25T17:54:56.770Z,4.23
2018-04-25T17:57:24.326Z,2.10
2018-04-25T17:59:51.710Z,1.73
2018-04-25T18:02:19.899Z,2.33
2018-04-25T18:04:47.303Z,1.90
2018-04-25T18:07:14.707Z,1.73
2018-04-25T18:09:42.110Z,1.70
2018-04-25T18:12:10.278Z,2.30
2018-04-25T18:14:37.723Z,1.50
2018-04-25T18:17:05.197Z,3.00
2018-04-25T18:19:32.532Z,5.97
2018-04-25T18:21:59.947Z,1.80
2018-04-25T18:24:27.350Z,4.37
2018-04-25T18:26:55.542Z,2.27
2018-04-25T18:29:23.726Z,2.87
2018-04-25T18:31:51.158Z,1.93
2018-04-25T18:34:18.720Z,1.47
2018-04-25T18:36:46.125Z,4.43
2018-04-25T18:39:13.602Z,3.20
2018-04-25T18:41:41.760Z,2.70
2018-04-25T18:44:09.166Z,3.67
2018-04-25T18:46:37.355Z,4.83
2018-04-25T18:49:04.810Z,1.43
2018-04-25T18:51:32.245Z,1.37
2018-04-25T18:53:59.642Z,1.40
2018-04-25T18:56:27.832Z,1.40
2018-04-25T18:58:55.222Z,3.83
2018-04-25T19:01:22.632Z,1.50
2018-04-25T19:03:50.026Z,1.30
2018-04-25T19:06:17.444Z,1.43
2018-04-25T19:08:44.853Z,5.97
2018-04-25T19:11:12.260Z,4.47
2018-04-25T19:13:39.666Z,1.00
2018-04-25T19:16:07.064Z,2.00
2018-04-25T19:18:34.467Z,1.40
2018-04-25T19:21:02.658Z,1.60
2018-04-25T19:23:30.059Z,1.53
2018-04-25T19:25:58.261Z,2.30
2018-04-25T19:28:25.654Z,1.80
2018-04-25T19:30:53.067Z,3.80
2018-04-25T19:33:20.467Z,2.27
2018-04-25T19:35:48.650Z,8.03
2018-04-25T19:38:16.818Z,1.57
2018-04-25T19:40:44.243Z,0.97
2018-04-25T19:43:11.632Z,2.40
2018-04-25T19:45:39.049Z,1.57
2018-04-25T19:48:06.451Z,2.00
2018-04-25T19:50:33.860Z,1.10
2018-04-25T19:53:01.276Z,1.90
2018-04-25T19:55:28.701Z,1.00
2018-04-25T19:57:56.081Z,4.60
2018-04-25T20:00:23.495Z,1.00
2018-04-25T20:02:50.902Z,1.13
2018-04-25T20:05:18.302Z,2.73
2018-04-25T20:07:45.731Z,1.87
2018-04-25T20:10:13.150Z,0.90
2018-04-25T20:12:40.558Z,5.33
2018-04-25T20:15:07.981Z,0.77
2018-04-25T20:17:36.135Z,1.10
2018-04-25T20:20:04.319Z,0.90
2018-04-25T20:22:32.521Z,1.40
2018-04-25T20:24:59.931Z,1.40
2018-04-25T20:27:27.323Z,0.93
2018-04-25T20:29:54.723Z,1.30
2018-04-25T20:32:22.134Z,1.20
2018-04-25T20:34:49.546Z,2.00
2018-04-25T20:37:16.939Z,1.50
2018-04-25T20:39:44.338Z,1.50
2018-04-25T20:42:12.503Z,5.57
2018-04-25T20:44:40.674Z,1.43
2018-04-25T20:47:08.093Z,1.50
2018-04-25T20:49:36.474Z,3.60
2018-04-25T20:52:03.886Z,1.63
2018-04-25T20:54:31.291Z,1.33
2018-04-25T20:56:58.700Z,1.70
2018-04-25T20:59:26.866Z,1.03
2018-04-25T21:01:54.438Z,1.60
2018-04-25T21:04:21.867Z,1.70
2018-04-25T21:06:49.263Z,2.80
2018-04-25T21:09:18.432Z,1.40
2018-04-25T21:11:45.856Z,1.73
2018-04-25T21:14:13.266Z,1.50
2018-04-25T21:16:40.669Z,1.50
2018-04-25T21:19:08.078Z,1.40
2018-04-25T21:21:35.487Z,1.33
2018-04-25T21:24:02.921Z,1.50
2018-04-25T21:26:30.287Z,1.57
2018-04-25T21:28:57.692Z,2.43
2018-04-25T21:31:25.136Z,4.20
2018-04-25T21:33:53.263Z,1.57
2018-04-25T21:36:21.434Z,1.40
2018-04-25T21:38:49.618Z,1.30
2018-04-25T21:41:17.039Z,1.47
2018-04-25T21:43:45.207Z,1.67
2018-04-25T21:46:12.626Z,3.63
2018-04-25T21:48:40.023Z,1.30
2018-04-25T21:51:07.532Z,1.67
2018-04-25T21:53:34.888Z,1.30
2018-04-25T21:56:02.306Z,1.50
2018-04-25T21:58:30.480Z,3.77
2018-04-25T22:00:57.881Z,1.40
2018-04-25T22:03:25.292Z,1.70
2018-04-25T22:05:52.699Z,1.90
2018-04-25T22:08:20.103Z,1.93
2018-04-25T22:10:47.620Z,2.10
2018-04-25T22:13:15.039Z,2.73
2018-04-25T22:15:42.447Z,3.67
2018-04-25T22:18:10.630Z,3.00
2018-04-25T22:20:38.047Z,5.20
2018-04-25T22:23:05.454Z,3.90
2018-04-25T22:25:32.863Z,4.57
2018-04-25T22:28:00.263Z,4.30
2018-04-25T22:30:28.439Z,3.87
2018-04-25T22:32:56.609Z,4.10
2018-04-25T22:35:24.023Z,5.50
2018-04-25T22:37:51.755Z,6.50
2018-04-25T22:40:19.163Z,4.47
2018-04-25T22:42:46.562Z,4.97
2018-04-25T22:45:14.747Z,5.23
2018-04-25T22:47:42.158Z,5.40
2018-04-25T22:50:10.337Z,5.60
2018-04-25T22:52:37.752Z,5.37
2018-04-25T22:55:05.155Z,5.40
2018-04-25T22:57:32.567Z,5.00
2018-04-25T22:59:59.984Z,4.80
2018-04-25T23:02:28.176Z,6.03
2018-04-25T23:04:55.603Z,4.30
2018-04-25T23:07:23.069Z,5.03
2018-04-25T23:09:50.458Z,4.50
2018-04-25T23:12:18.643Z,4.67
2018-04-25T23:14:46.043Z,4.53
2018-04-25T23:17:13.463Z,5.07
2018-04-25T23:19:40.883Z,5.00
2018-04-25T23:22:08.314Z,5.27
2018-04-25T23:24:35.736Z,5.70
2018-04-25T23:27:03.911Z,4.50
2018-04-25T23:29:31.318Z,4.87
2018-04-25T23:31:58.714Z,4.50
2018-04-25T23:34:26.126Z,4.60
2018-04-25T23:36:54.406Z,4.50
2018-04-25T23:39:21.819Z,3.97
2018-04-25T23:41:49.235Z,4.90
2018-04-25T23:44:16.649Z,5.00
2018-04-25T23:46:44.093Z,4.77
2018-04-25T23:49:11.531Z,4.13
2018-04-25T23:51:38.946Z,4.90
2018-04-25T23:54:06.363Z,4.33
2018-04-25T23:56:34.527Z,5.00
2018-04-25T23:59:02.717Z,6.60
